Pays
Station

 

Conditions  météo  pour  Pretoria Irene  -  Afrique Du Sud    Afrique Du Sud

  
17 °C
    
 
 

METAR pour Pretoria Irene :

FAIR 210541Z 09004KT CAVOK 17/11 Q1028

 

Voici le bulletin pour Pretoria Irene - Afrique Du Sud.
 
Le bulletin a été fait il y a 18 heures et 30 minutes, à 05:41 UTC .
Le vent soufflait à la vitesse de 2.1 mètres par seconde de Est (090°).
 
La température était de 17 °C, avec un point de rosée à 11 °C.
La pression atmosphérique était de 1028 hPa.
L'humidité relative était de 67.7%.
 
Il y avait pas de nuages en-dessous de 1500 mètres et pas de cumulonimbus.
 
La visibilité globale était de supérieure à 10 kilomètres.
 

 
 
 

Pays :   A   B   C   D   E   F   G   H   I   J   K   L   M   N   O   P   Q   R   S   T   U   V   W   Y   Z

 

Partenaires :  Info Météo avec Met'info
Météo Marine avec MeteoMarine.net
Infos Site  |  Infos Légales  |  Crédits  |  Confidentialité
Contactez-nous  |  Ajouter aux favoris
© 2013-2019 METAR - Tous droits réservés